createdAt,value
2022-11-25T00:00:33.762Z,12.00
2022-11-25T00:08:41.988Z,12.00
2022-11-25T00:16:48.782Z,12.00
2022-11-25T00:24:56.963Z,12.00
2022-11-25T00:33:03.894Z,12.20
2022-11-25T00:41:36.102Z,12.20
2022-11-25T00:49:42.290Z,12.10
2022-11-25T00:57:50.281Z,11.80
2022-11-25T01:05:55.664Z,11.70
2022-11-25T01:14:03.911Z,11.70
2022-11-25T01:22:09.622Z,11.60
2022-11-25T01:30:20.497Z,11.80
2022-11-25T01:38:25.838Z,11.80
2022-11-25T01:46:45.994Z,11.70
2022-11-25T01:54:55.980Z,11.70
2022-11-25T02:03:04.393Z,11.80
2022-11-25T02:11:09.788Z,11.70
2022-11-25T02:19:26.413Z,11.80
2022-11-25T02:27:34.473Z,11.80
2022-11-25T02:35:41.723Z,11.70
2022-11-25T02:43:50.769Z,11.70
2022-11-25T02:51:58.055Z,11.70
2022-11-25T03:00:10.889Z,11.60
2022-11-25T03:08:18.363Z,11.60
2022-11-25T03:16:26.917Z,11.70
2022-11-25T03:24:32.611Z,11.80
2022-11-25T03:32:41.038Z,11.60
2022-11-25T03:40:47.449Z,11.50
2022-11-25T03:48:55.537Z,11.60
2022-11-25T03:57:02.032Z,11.40
2022-11-25T04:05:11.970Z,11.40
2022-11-25T04:13:17.508Z,11.50
2022-11-25T04:21:26.772Z,11.50
2022-11-25T04:29:32.320Z,11.60
2022-11-25T04:37:43.915Z,11.50
2022-11-25T04:46:13.150Z,11.50
2022-11-25T04:54:20.289Z,11.60
2022-11-25T05:02:29.126Z,11.50
2022-11-25T05:10:52.435Z,11.50
2022-11-25T05:18:59.377Z,11.30
2022-11-25T05:27:08.240Z,11.30
2022-11-25T05:35:13.713Z,11.10
2022-11-25T05:43:22.475Z,11.20
2022-11-25T05:51:28.421Z,11.20
2022-11-25T05:59:37.364Z,10.90
2022-11-25T06:07:56.813Z,11.00
2022-11-25T06:16:10.539Z,11.10
2022-11-25T06:24:16.442Z,11.30
2022-11-25T06:32:38.524Z,11.30
2022-11-25T06:41:00.267Z,11.40
2022-11-25T06:49:08.436Z,11.40
2022-11-25T06:57:15.080Z,11.50
2022-11-25T07:05:23.023Z,11.50
2022-11-25T07:13:28.348Z,11.40
2022-11-25T07:21:37.074Z,11.60
2022-11-25T07:38:10.362Z,11.70
2022-11-25T07:46:22.041Z,11.70
2022-11-25T07:54:34.142Z,11.70
2022-11-25T08:02:39.553Z,11.60
2022-11-25T08:10:47.591Z,11.60
2022-11-25T08:18:53.899Z,11.60
2022-11-25T08:27:02.098Z,11.30
2022-11-25T08:35:11.369Z,11.50
2022-11-25T08:43:26.407Z,11.70
2022-11-25T08:51:37.243Z,11.80
2022-11-25T08:59:45.293Z,11.80
2022-11-25T09:07:50.650Z,12.00
2022-11-25T09:15:59.686Z,11.80
2022-11-25T09:24:06.405Z,11.80
2022-11-25T09:32:14.302Z,11.90
2022-11-25T09:40:22.968Z,12.00
2022-11-25T09:48:46.692Z,11.90
2022-11-25T09:56:58.562Z,12.20
2022-11-25T10:05:12.582Z,12.30
2022-11-25T10:13:22.824Z,12.10
2022-11-25T10:21:31.715Z,11.60
2022-11-25T10:29:41.502Z,11.90
2022-11-25T10:37:55.222Z,11.70
2022-11-25T10:46:10.808Z,11.80
2022-11-25T10:54:29.826Z,11.70
2022-11-25T11:02:48.252Z,11.60
2022-11-25T11:11:18.416Z,12.00
2022-11-25T11:19:29.323Z,12.30
2022-11-25T12:02:40.248Z,12.30
2022-11-25T12:10:51.353Z,12.30
2022-11-25T12:19:05.327Z,12.40
2022-11-25T12:27:14.487Z,12.50
2022-11-25T12:35:27.770Z,12.30
2022-11-25T12:43:42.503Z,12.30
2022-11-25T12:52:11.387Z,12.00
2022-11-25T13:09:06.734Z,12.30
2022-11-25T13:17:15.178Z,12.30
2022-11-25T13:25:44.477Z,12.20
2022-11-25T13:34:10.346Z,11.90
2022-11-25T13:42:22.399Z,11.80
2022-11-25T13:50:54.904Z,11.80
2022-11-25T13:59:37.359Z,11.80
2022-11-25T14:07:55.609Z,11.80
2022-11-25T14:16:15.399Z,11.50
2022-11-25T14:24:44.791Z,11.80
2022-11-25T14:32:59.224Z,11.80
2022-11-25T14:41:13.246Z,11.90
2022-11-25T14:49:46.700Z,11.90
2022-11-25T14:57:53.510Z,11.60
2022-11-25T15:06:04.638Z,11.30
2022-11-25T15:14:24.545Z,11.30
2022-11-25T15:22:30.672Z,11.40
2022-11-25T15:30:38.661Z,11.30
2022-11-25T15:38:46.222Z,11.50
2022-11-25T15:47:02.814Z,11.70
2022-11-25T15:55:11.082Z,11.70
2022-11-25T16:03:25.082Z,11.60
2022-11-25T16:11:33.917Z,11.20
2022-11-25T16:19:46.982Z,11.10
2022-11-25T16:27:53.347Z,11.10
2022-11-25T16:36:06.558Z,10.80
2022-11-25T16:44:21.373Z,10.80
2022-11-25T16:52:29.247Z,11.00
2022-11-25T17:00:35.371Z,10.80
2022-11-25T17:08:43.830Z,9.90
2022-11-25T17:16:49.292Z,10.50
2022-11-25T17:24:58.763Z,10.90
2022-11-25T17:33:07.858Z,11.20
2022-11-25T17:41:18.655Z,11.20
2022-11-25T17:49:24.542Z,11.20
2022-11-25T17:57:32.538Z,11.10
2022-11-25T18:05:37.828Z,11.00
2022-11-25T18:13:47.609Z,11.10
2022-11-25T18:21:53.817Z,11.10
2022-11-25T18:30:02.769Z,11.00
2022-11-25T18:38:08.669Z,10.90
2022-11-25T18:46:17.563Z,10.90
2022-11-25T18:54:22.895Z,10.60
2022-11-25T19:02:31.144Z,10.80
2022-11-25T19:10:40.209Z,10.90
2022-11-25T19:18:50.100Z,11.00
2022-11-25T19:26:58.683Z,11.10
2022-11-25T19:35:10.115Z,11.00
